sensor_id;sensor_type;location;lat;lon;timestamp;P1;durP1;ratioP1;P2;durP2;ratioP2
26488;SDS011;14169;43.684;10.484;2022-11-23T00:02:22;17.88;;;15.85;;
26488;SDS011;14169;43.684;10.484;2022-11-23T00:04:48;14.90;;;13.40;;
26488;SDS011;14169;43.684;10.484;2022-11-23T00:07:13;14.10;;;12.82;;
26488;SDS011;14169;43.684;10.484;2022-11-23T00:09:39;13.88;;;12.68;;
26488;SDS011;14169;43.684;10.484;2022-11-23T00:12:04;22.95;;;11.93;;
26488;SDS011;14169;43.684;10.484;2022-11-23T00:14:30;14.50;;;13.07;;
26488;SDS011;14169;43.684;10.484;2022-11-23T00:16:55;14.75;;;11.05;;
26488;SDS011;14169;43.684;10.484;2022-11-23T00:19:21;11.05;;;9.90;;
26488;SDS011;14169;43.684;10.484;2022-11-23T00:21:46;9.45;;;8.50;;
26488;SDS011;14169;43.684;10.484;2022-11-23T00:24:11;14.70;;;8.73;;
26488;SDS011;14169;43.684;10.484;2022-11-23T00:26:37;10.23;;;8.80;;
26488;SDS011;14169;43.684;10.484;2022-11-23T00:29:03;10.13;;;7.22;;
26488;SDS011;14169;43.684;10.484;2022-11-23T00:31:28;8.75;;;7.43;;
26488;SDS011;14169;43.684;10.484;2022-11-23T00:33:54;6.72;;;6.07;;
26488;SDS011;14169;43.684;10.484;2022-11-23T00:36:21;7.47;;;6.75;;
26488;SDS011;14169;43.684;10.484;2022-11-23T00:38:48;9.00;;;5.65;;
26488;SDS011;14169;43.684;10.484;2022-11-23T00:41:15;7.82;;;5.75;;
26488;SDS011;14169;43.684;10.484;2022-11-23T00:43:42;8.85;;;6.32;;
26488;SDS011;14169;43.684;10.484;2022-11-23T00:46:18;9.23;;;6.00;;
26488;SDS011;14169;43.684;10.484;2022-11-23T00:48:53;12.27;;;6.53;;
26488;SDS011;14169;43.684;10.484;2022-11-23T00:51:22;6.65;;;5.30;;
26488;SDS011;14169;43.684;10.484;2022-11-23T00:53:58;6.65;;;5.15;;
26488;SDS011;14169;43.684;10.484;2022-11-23T00:56:25;18.00;;;4.80;;
26488;SDS011;14169;43.684;10.484;2022-11-23T00:58:52;9.00;;;4.57;;
26488;SDS011;14169;43.684;10.484;2022-11-23T01:01:20;4.95;;;4.40;;
26488;SDS011;14169;43.684;10.484;2022-11-23T01:03:48;5.22;;;4.60;;
26488;SDS011;14169;43.684;10.484;2022-11-23T01:06:19;5.32;;;4.47;;
26488;SDS011;14169;43.684;10.484;2022-11-23T01:08:50;6.78;;;3.95;;
26488;SDS011;14169;43.684;10.484;2022-11-23T01:11:18;7.85;;;4.38;;
26488;SDS011;14169;43.684;10.484;2022-11-23T01:13:44;26.85;;;16.65;;
26488;SDS011;14169;43.684;10.484;2022-11-23T01:16:12;114.75;;;50.35;;
26488;SDS011;14169;43.684;10.484;2022-11-23T01:18:40;76.38;;;35.58;;
26488;SDS011;14169;43.684;10.484;2022-11-23T01:21:05;65.28;;;30.48;;
26488;SDS011;14169;43.684;10.484;2022-11-23T01:23:31;41.72;;;21.02;;
26488;SDS011;14169;43.684;10.484;2022-11-23T01:25:56;26.30;;;15.00;;
26488;SDS011;14169;43.684;10.484;2022-11-23T01:28:22;31.80;;;17.23;;
26488;SDS011;14169;43.684;10.484;2022-11-23T01:30:48;29.23;;;17.75;;
26488;SDS011;14169;43.684;10.484;2022-11-23T01:33:13;64.85;;;30.48;;
26488;SDS011;14169;43.684;10.484;2022-11-23T01:35:39;95.30;;;41.13;;
26488;SDS011;14169;43.684;10.484;2022-11-23T01:38:04;134.32;;;61.78;;
26488;SDS011;14169;43.684;10.484;2022-11-23T01:40:30;104.03;;;48.50;;
26488;SDS011;14169;43.684;10.484;2022-11-23T01:43:03;49.25;;;27.25;;
26488;SDS011;14169;43.684;10.484;2022-11-23T01:48:03;26.50;;;16.05;;
26488;SDS011;14169;43.684;10.484;2022-11-23T01:50:33;22.23;;;14.15;;
26488;SDS011;14169;43.684;10.484;2022-11-23T01:52:58;13.10;;;10.45;;
26488;SDS011;14169;43.684;10.484;2022-11-23T01:55:24;11.50;;;7.93;;
26488;SDS011;14169;43.684;10.484;2022-11-23T01:57:51;9.02;;;7.90;;
26488;SDS011;14169;43.684;10.484;2022-11-23T02:00:17;8.48;;;7.15;;
26488;SDS011;14169;43.684;10.484;2022-11-23T02:02:44;7.45;;;6.75;;
26488;SDS011;14169;43.684;10.484;2022-11-23T02:05:15;7.50;;;6.80;;
26488;SDS011;14169;43.684;10.484;2022-11-23T02:07:44;10.80;;;7.05;;
26488;SDS011;14169;43.684;10.484;2022-11-23T02:10:11;10.52;;;7.20;;
26488;SDS011;14169;43.684;10.484;2022-11-23T02:12:37;8.30;;;7.13;;
26488;SDS011;14169;43.684;10.484;2022-11-23T02:15:02;8.20;;;6.68;;
26488;SDS011;14169;43.684;10.484;2022-11-23T02:17:28;8.18;;;7.30;;
26488;SDS011;14169;43.684;10.484;2022-11-23T02:22:30;7.65;;;6.93;;
26488;SDS011;14169;43.684;10.484;2022-11-23T02:25:06;8.52;;;7.72;;
26488;SDS011;14169;43.684;10.484;2022-11-23T02:27:37;10.80;;;6.88;;
26488;SDS011;14169;43.684;10.484;2022-11-23T02:30:03;7.28;;;6.63;;
26488;SDS011;14169;43.684;10.484;2022-11-23T02:32:29;8.60;;;7.72;;
26488;SDS011;14169;43.684;10.484;2022-11-23T02:34:55;7.25;;;6.55;;
26488;SDS011;14169;43.684;10.484;2022-11-23T02:37:21;10.45;;;7.07;;
26488;SDS011;14169;43.684;10.484;2022-11-23T02:39:47;7.95;;;7.25;;
26488;SDS011;14169;43.684;10.484;2022-11-23T02:42:15;9.15;;;7.20;;
26488;SDS011;14169;43.684;10.484;2022-11-23T02:44:55;8.32;;;7.60;;
26488;SDS011;14169;43.684;10.484;2022-11-23T02:47:28;8.80;;;7.65;;
26488;SDS011;14169;43.684;10.484;2022-11-23T02:49:54;9.15;;;7.43;;
26488;SDS011;14169;43.684;10.484;2022-11-23T02:52:19;8.63;;;7.82;;
26488;SDS011;14169;43.684;10.484;2022-11-23T02:54:45;9.30;;;8.50;;
26488;SDS011;14169;43.684;10.484;2022-11-23T02:57:10;9.13;;;7.85;;
26488;SDS011;14169;43.684;10.484;2022-11-23T02:59:36;8.75;;;8.05;;
26488;SDS011;14169;43.684;10.484;2022-11-23T03:02:02;8.75;;;7.88;;
26488;SDS011;14169;43.684;10.484;2022-11-23T03:04:29;9.07;;;7.45;;
26488;SDS011;14169;43.684;10.484;2022-11-23T03:06:54;9.00;;;8.02;;
26488;SDS011;14169;43.684;10.484;2022-11-23T03:09:20;8.55;;;7.75;;
26488;SDS011;14169;43.684;10.484;2022-11-23T03:11:45;9.23;;;8.27;;
26488;SDS011;14169;43.684;10.484;2022-11-23T03:14:11;10.35;;;8.00;;
26488;SDS011;14169;43.684;10.484;2022-11-23T03:16:36;9.35;;;8.55;;
26488;SDS011;14169;43.684;10.484;2022-11-23T03:19:02;9.23;;;8.43;;
26488;SDS011;14169;43.684;10.484;2022-11-23T03:21:27;8.57;;;7.78;;
26488;SDS011;14169;43.684;10.484;2022-11-23T03:23:53;8.55;;;7.85;;
26488;SDS011;14169;43.684;10.484;2022-11-23T03:26:19;9.40;;;8.10;;
26488;SDS011;14169;43.684;10.484;2022-11-23T03:28:45;8.88;;;8.07;;
26488;SDS011;14169;43.684;10.484;2022-11-23T03:31:10;8.73;;;7.97;;
26488;SDS011;14169;43.684;10.484;2022-11-23T03:33:35;8.30;;;7.50;;
26488;SDS011;14169;43.684;10.484;2022-11-23T03:36:01;10.40;;;8.45;;
26488;SDS011;14169;43.684;10.484;2022-11-23T03:38:26;9.90;;;7.93;;
26488;SDS011;14169;43.684;10.484;2022-11-23T03:40:52;8.30;;;7.50;;
26488;SDS011;14169;43.684;10.484;2022-11-23T03:43:17;12.65;;;9.40;;
26488;SDS011;14169;43.684;10.484;2022-11-23T03:45:43;8.52;;;7.72;;
26488;SDS011;14169;43.684;10.484;2022-11-23T03:48:09;10.50;;;8.50;;
26488;SDS011;14169;43.684;10.484;2022-11-23T03:50:35;11.50;;;9.25;;
26488;SDS011;14169;43.684;10.484;2022-11-23T03:53:00;9.60;;;8.60;;
26488;SDS011;14169;43.684;10.484;2022-11-23T03:55:26;8.93;;;7.97;;
26488;SDS011;14169;43.684;10.484;2022-11-23T03:57:52;7.90;;;7.20;;
26488;SDS011;14169;43.684;10.484;2022-11-23T04:02:49;9.43;;;8.55;;
26488;SDS011;14169;43.684;10.484;2022-11-23T04:05:14;9.85;;;8.90;;
26488;SDS011;14169;43.684;10.484;2022-11-23T04:07:40;9.05;;;8.15;;
26488;SDS011;14169;43.684;10.484;2022-11-23T04:10:05;11.05;;;7.95;;
26488;SDS011;14169;43.684;10.484;2022-11-23T04:12:31;9.82;;;8.15;;
26488;SDS011;14169;43.684;10.484;2022-11-23T04:14:57;12.68;;;8.35;;
26488;SDS011;14169;43.684;10.484;2022-11-23T04:17:22;9.52;;;8.63;;
26488;SDS011;14169;43.684;10.484;2022-11-23T04:19:47;9.55;;;8.35;;
26488;SDS011;14169;43.684;10.484;2022-11-23T04:22:13;9.15;;;8.25;;
26488;SDS011;14169;43.684;10.484;2022-11-23T04:24:38;9.13;;;8.32;;
26488;SDS011;14169;43.684;10.484;2022-11-23T04:27:03;11.68;;;8.43;;
26488;SDS011;14169;43.684;10.484;2022-11-23T04:29:29;9.13;;;8.32;;
26488;SDS011;14169;43.684;10.484;2022-11-23T04:31:54;8.20;;;7.50;;
26488;SDS011;14169;43.684;10.484;2022-11-23T04:34:20;9.27;;;8.38;;
26488;SDS011;14169;43.684;10.484;2022-11-23T04:36:45;9.27;;;8.35;;
26488;SDS011;14169;43.684;10.484;2022-11-23T04:39:11;9.25;;;8.07;;
26488;SDS011;14169;43.684;10.484;2022-11-23T04:41:37;10.55;;;7.82;;
26488;SDS011;14169;43.684;10.484;2022-11-23T04:44:03;9.88;;;7.85;;
26488;SDS011;14169;43.684;10.484;2022-11-23T04:46:29;8.38;;;7.68;;
26488;SDS011;14169;43.684;10.484;2022-11-23T04:48:54;9.27;;;7.78;;
26488;SDS011;14169;43.684;10.484;2022-11-23T04:51:20;8.63;;;7.82;;
26488;SDS011;14169;43.684;10.484;2022-11-23T04:53:45;9.85;;;8.85;;
26488;SDS011;14169;43.684;10.484;2022-11-23T04:56:11;9.30;;;8.50;;
26488;SDS011;14169;43.684;10.484;2022-11-23T04:58:36;22.85;;;8.50;;
26488;SDS011;14169;43.684;10.484;2022-11-23T05:01:03;9.90;;;8.98;;
26488;SDS011;14169;43.684;10.484;2022-11-23T05:03:29;8.82;;;8.13;;
26488;SDS011;14169;43.684;10.484;2022-11-23T05:05:58;15.55;;;8.57;;
26488;SDS011;14169;43.684;10.484;2022-11-23T05:08:23;9.38;;;8.48;;
26488;SDS011;14169;43.684;10.484;2022-11-23T05:10:49;10.10;;;8.98;;
26488;SDS011;14169;43.684;10.484;2022-11-23T05:13:14;11.30;;;7.68;;
26488;SDS011;14169;43.684;10.484;2022-11-23T05:15:40;19.08;;;9.07;;
26488;SDS011;14169;43.684;10.484;2022-11-23T05:18:05;11.82;;;8.18;;
26488;SDS011;14169;43.684;10.484;2022-11-23T05:20:31;9.35;;;8.45;;
26488;SDS011;14169;43.684;10.484;2022-11-23T05:22:57;8.85;;;8.07;;
26488;SDS011;14169;43.684;10.484;2022-11-23T05:25:23;9.45;;;8.55;;
26488;SDS011;14169;43.684;10.484;2022-11-23T05:27:49;11.23;;;9.07;;
26488;SDS011;14169;43.684;10.484;2022-11-23T05:30:14;10.68;;;9.52;;
26488;SDS011;14169;43.684;10.484;2022-11-23T05:32:40;14.23;;;12.95;;
26488;SDS011;14169;43.684;10.484;2022-11-23T05:35:05;10.50;;;9.48;;
26488;SDS011;14169;43.684;10.484;2022-11-23T05:37:31;11.88;;;10.88;;
26488;SDS011;14169;43.684;10.484;2022-11-23T05:39:58;12.73;;;11.55;;
26488;SDS011;14169;43.684;10.484;2022-11-23T05:42:23;14.80;;;13.32;;
26488;SDS011;14169;43.684;10.484;2022-11-23T05:44:51;19.67;;;15.65;;
26488;SDS011;14169;43.684;10.484;2022-11-23T05:47:17;11.60;;;10.40;;
26488;SDS011;14169;43.684;10.484;2022-11-23T05:49:42;8.80;;;7.97;;
26488;SDS011;14169;43.684;10.484;2022-11-23T05:52:07;10.65;;;9.73;;
26488;SDS011;14169;43.684;10.484;2022-11-23T05:54:33;9.50;;;8.70;;
26488;SDS011;14169;43.684;10.484;2022-11-23T05:56:59;9.68;;;8.43;;
26488;SDS011;14169;43.684;10.484;2022-11-23T05:59:24;8.75;;;7.90;;
26488;SDS011;14169;43.684;10.484;2022-11-23T06:01:50;8.70;;;7.90;;
26488;SDS011;14169;43.684;10.484;2022-11-23T06:04:16;10.00;;;6.97;;
26488;SDS011;14169;43.684;10.484;2022-11-23T06:06:41;8.40;;;7.57;;
26488;SDS011;14169;43.684;10.484;2022-11-23T06:09:07;8.75;;;7.47;;
26488;SDS011;14169;43.684;10.484;2022-11-23T06:11:32;6.97;;;6.05;;
26488;SDS011;14169;43.684;10.484;2022-11-23T06:13:59;6.70;;;6.00;;
26488;SDS011;14169;43.684;10.484;2022-11-23T06:16:24;6.53;;;5.60;;
26488;SDS011;14169;43.684;10.484;2022-11-23T06:18:50;6.60;;;5.22;;
26488;SDS011;14169;43.684;10.484;2022-11-23T06:21:15;6.32;;;5.18;;
26488;SDS011;14169;43.684;10.484;2022-11-23T06:23:41;5.63;;;5.00;;
26488;SDS011;14169;43.684;10.484;2022-11-23T06:26:06;6.63;;;4.93;;
26488;SDS011;14169;43.684;10.484;2022-11-23T06:28:31;6.05;;;5.32;;
26488;SDS011;14169;43.684;10.484;2022-11-23T06:31:03;15.63;;;8.10;;
26488;SDS011;14169;43.684;10.484;2022-11-23T06:33:30;8.87;;;7.40;;
26488;SDS011;14169;43.684;10.484;2022-11-23T06:35:57;8.75;;;7.95;;
26488;SDS011;14169;43.684;10.484;2022-11-23T06:38:23;7.90;;;7.10;;
26488;SDS011;14169;43.684;10.484;2022-11-23T06:40:49;10.57;;;7.47;;
26488;SDS011;14169;43.684;10.484;2022-11-23T06:43:14;6.97;;;6.32;;
26488;SDS011;14169;43.684;10.484;2022-11-23T06:45:40;12.32;;;6.13;;
26488;SDS011;14169;43.684;10.484;2022-11-23T06:48:06;10.95;;;7.30;;
26488;SDS011;14169;43.684;10.484;2022-11-23T06:50:32;16.70;;;13.38;;
26488;SDS011;14169;43.684;10.484;2022-11-23T06:52:58;15.38;;;11.90;;
26488;SDS011;14169;43.684;10.484;2022-11-23T06:55:24;21.42;;;10.18;;
26488;SDS011;14169;43.684;10.484;2022-11-23T06:57:50;12.88;;;8.52;;
26488;SDS011;14169;43.684;10.484;2022-11-23T07:00:16;10.20;;;6.70;;
26488;SDS011;14169;43.684;10.484;2022-11-23T07:02:43;12.65;;;6.47;;
26488;SDS011;14169;43.684;10.484;2022-11-23T07:05:08;7.20;;;5.65;;
26488;SDS011;14169;43.684;10.484;2022-11-23T07:07:34;5.97;;;5.40;;
26488;SDS011;14169;43.684;10.484;2022-11-23T07:10:00;5.40;;;4.95;;
26488;SDS011;14169;43.684;10.484;2022-11-23T07:12:25;6.30;;;5.07;;
26488;SDS011;14169;43.684;10.484;2022-11-23T07:14:51;7.85;;;4.47;;
26488;SDS011;14169;43.684;10.484;2022-11-23T07:17:16;4.30;;;3.90;;
26488;SDS011;14169;43.684;10.484;2022-11-23T07:19:42;10.65;;;4.70;;
26488;SDS011;14169;43.684;10.484;2022-11-23T07:22:07;9.95;;;4.82;;
26488;SDS011;14169;43.684;10.484;2022-11-23T07:24:33;4.95;;;4.45;;
26488;SDS011;14169;43.684;10.484;2022-11-23T07:26:58;8.52;;;4.72;;
26488;SDS011;14169;43.684;10.484;2022-11-23T07:29:23;5.95;;;4.43;;
26488;SDS011;14169;43.684;10.484;2022-11-23T07:31:49;5.15;;;4.65;;
26488;SDS011;14169;43.684;10.484;2022-11-23T07:34:14;4.97;;;4.30;;
26488;SDS011;14169;43.684;10.484;2022-11-23T07:36:40;10.77;;;4.05;;
26488;SDS011;14169;43.684;10.484;2022-11-23T07:39:05;8.07;;;4.78;;
26488;SDS011;14169;43.684;10.484;2022-11-23T07:41:31;6.00;;;5.50;;
26488;SDS011;14169;43.684;10.484;2022-11-23T07:43:56;6.72;;;6.13;;
26488;SDS011;14169;43.684;10.484;2022-11-23T07:46:22;5.95;;;4.40;;
26488;SDS011;14169;43.684;10.484;2022-11-23T07:48:47;11.07;;;5.45;;
26488;SDS011;14169;43.684;10.484;2022-11-23T07:51:13;6.60;;;6.10;;
26488;SDS011;14169;43.684;10.484;2022-11-23T07:53:40;8.80;;;6.55;;
26488;SDS011;14169;43.684;10.484;2022-11-23T07:56:05;6.07;;;4.65;;
26488;SDS011;14169;43.684;10.484;2022-11-23T07:58:31;7.57;;;4.68;;
26488;SDS011;14169;43.684;10.484;2022-11-23T08:00:57;6.90;;;4.15;;
26488;SDS011;14169;43.684;10.484;2022-11-23T08:03:23;4.78;;;4.38;;
26488;SDS011;14169;43.684;10.484;2022-11-23T08:05:48;5.90;;;4.00;;
26488;SDS011;14169;43.684;10.484;2022-11-23T08:08:13;4.65;;;4.25;;
26488;SDS011;14169;43.684;10.484;2022-11-23T08:10:39;5.13;;;4.70;;
26488;SDS011;14169;43.684;10.484;2022-11-23T08:13:05;8.50;;;4.80;;
26488;SDS011;14169;43.684;10.484;2022-11-23T08:15:31;8.30;;;5.60;;
26488;SDS011;14169;43.684;10.484;2022-11-23T08:17:57;9.10;;;4.40;;
26488;SDS011;14169;43.684;10.484;2022-11-23T08:20:24;4.22;;;3.50;;
26488;SDS011;14169;43.684;10.484;2022-11-23T08:22:51;5.28;;;3.08;;
26488;SDS011;14169;43.684;10.484;2022-11-23T08:25:19;2.83;;;1.95;;
26488;SDS011;14169;43.684;10.484;2022-11-23T08:27:53;3.83;;;2.15;;
26488;SDS011;14169;43.684;10.484;2022-11-23T08:30:19;5.28;;;3.15;;
26488;SDS011;14169;43.684;10.484;2022-11-23T08:32:44;3.47;;;2.40;;
26488;SDS011;14169;43.684;10.484;2022-11-23T08:35:10;3.45;;;1.30;;
26488;SDS011;14169;43.684;10.484;2022-11-23T08:37:35;1.63;;;1.00;;
26488;SDS011;14169;43.684;10.484;2022-11-23T08:40:00;3.58;;;1.58;;
26488;SDS011;14169;43.684;10.484;2022-11-23T08:42:26;1.65;;;1.23;;
26488;SDS011;14169;43.684;10.484;2022-11-23T08:44:51;2.13;;;1.60;;
26488;SDS011;14169;43.684;10.484;2022-11-23T08:47:17;2.50;;;1.15;;
26488;SDS011;14169;43.684;10.484;2022-11-23T08:49:43;1.95;;;1.08;;
26488;SDS011;14169;43.684;10.484;2022-11-23T08:52:09;2.72;;;1.13;;
26488;SDS011;14169;43.684;10.484;2022-11-23T08:54:34;2.35;;;1.40;;
26488;SDS011;14169;43.684;10.484;2022-11-23T08:57:02;1.40;;;1.10;;
26488;SDS011;14169;43.684;10.484;2022-11-23T08:59:27;2.03;;;1.70;;
26488;SDS011;14169;43.684;10.484;2022-11-23T09:01:52;2.42;;;1.80;;
26488;SDS011;14169;43.684;10.484;2022-11-23T09:04:18;2.45;;;1.45;;
26488;SDS011;14169;43.684;10.484;2022-11-23T09:06:43;2.95;;;1.73;;
26488;SDS011;14169;43.684;10.484;2022-11-23T09:09:09;3.72;;;2.15;;
26488;SDS011;14169;43.684;10.484;2022-11-23T09:11:34;4.13;;;1.50;;
26488;SDS011;14169;43.684;10.484;2022-11-23T09:14:00;2.85;;;1.67;;
26488;SDS011;14169;43.684;10.484;2022-11-23T09:16:25;1.92;;;1.60;;
26488;SDS011;14169;43.684;10.484;2022-11-23T09:18:54;3.25;;;1.60;;
26488;SDS011;14169;43.684;10.484;2022-11-23T09:21:20;4.28;;;1.98;;
26488;SDS011;14169;43.684;10.484;2022-11-23T09:23:45;1.67;;;1.25;;
26488;SDS011;14169;43.684;10.484;2022-11-23T09:26:10;1.77;;;1.35;;
26488;SDS011;14169;43.684;10.484;2022-11-23T09:28:36;2.95;;;1.50;;
26488;SDS011;14169;43.684;10.484;2022-11-23T09:31:02;1.45;;;1.20;;
26488;SDS011;14169;43.684;10.484;2022-11-23T09:33:28;2.28;;;1.52;;
26488;SDS011;14169;43.684;10.484;2022-11-23T09:36:01;2.90;;;1.45;;
26488;SDS011;14169;43.684;10.484;2022-11-23T09:38:28;2.63;;;1.40;;
26488;SDS011;14169;43.684;10.484;2022-11-23T09:41:09;3.65;;;1.40;;
26488;SDS011;14169;43.684;10.484;2022-11-23T09:44:07;2.30;;;1.15;;
26488;SDS011;14169;43.684;10.484;2022-11-23T09:46:43;2.03;;;1.05;;
26488;SDS011;14169;43.684;10.484;2022-11-23T09:49:21;2.13;;;1.10;;
26488;SDS011;14169;43.684;10.484;2022-11-23T09:51:50;1.83;;;1.02;;
26488;SDS011;14169;43.684;10.484;2022-11-23T09:54:32;1.73;;;1.33;;
26488;SDS011;14169;43.684;10.484;2022-11-23T09:57:01;1.50;;;1.20;;
26488;SDS011;14169;43.684;10.484;2022-11-23T10:01:54;2.92;;;1.00;;
26488;SDS011;14169;43.684;10.484;2022-11-23T10:04:20;1.13;;;0.90;;
26488;SDS011;14169;43.684;10.484;2022-11-23T10:06:50;1.00;;;0.90;;
26488;SDS011;14169;43.684;10.484;2022-11-23T10:09:38;1.33;;;0.85;;
26488;SDS011;14169;43.684;10.484;2022-11-23T10:14:54;0.80;;;0.60;;
26488;SDS011;14169;43.684;10.484;2022-11-23T10:20:38;0.63;;;0.38;;
26488;SDS011;14169;43.684;10.484;2022-11-23T10:26:03;1.13;;;0.40;;
26488;SDS011;14169;43.684;10.484;2022-11-23T10:28:29;0.45;;;0.35;;
26488;SDS011;14169;43.684;10.484;2022-11-23T10:31:12;0.70;;;0.50;;
26488;SDS011;14169;43.684;10.484;2022-11-23T10:33:52;1.30;;;1.08;;
26488;SDS011;14169;43.684;10.484;2022-11-23T10:36:18;1.67;;;1.10;;
26488;SDS011;14169;43.684;10.484;2022-11-23T10:38:45;2.35;;;0.90;;
26488;SDS011;14169;43.684;10.484;2022-11-23T10:41:14;2.03;;;0.65;;
26488;SDS011;14169;43.684;10.484;2022-11-23T10:43:49;0.75;;;0.50;;
26488;SDS011;14169;43.684;10.484;2022-11-23T10:46:24;1.08;;;0.47;;
26488;SDS011;14169;43.684;10.484;2022-11-23T10:51:28;1.15;;;0.82;;
26488;SDS011;14169;43.684;10.484;2022-11-23T10:54:04;0.80;;;0.40;;
26488;SDS011;14169;43.684;10.484;2022-11-23T10:56:45;0.73;;;0.35;;
26488;SDS011;14169;43.684;10.484;2022-11-23T10:59:26;0.45;;;0.40;;
26488;SDS011;14169;43.684;10.484;2022-11-23T11:01:58;1.05;;;0.50;;
26488;SDS011;14169;43.684;10.484;2022-11-23T11:04:25;1.38;;;0.50;;
26488;SDS011;14169;43.684;10.484;2022-11-23T11:06:51;0.60;;;0.50;;
26488;SDS011;14169;43.684;10.484;2022-11-23T11:09:17;1.88;;;0.70;;
26488;SDS011;14169;43.684;10.484;2022-11-23T11:11:45;1.38;;;0.55;;
26488;SDS011;14169;43.684;10.484;2022-11-23T11:14:15;0.93;;;0.77;;
26488;SDS011;14169;43.684;10.484;2022-11-23T11:17:09;3.20;;;0.80;;
26488;SDS011;14169;43.684;10.484;2022-11-23T11:19:48;1.75;;;0.77;;
26488;SDS011;14169;43.684;10.484;2022-11-23T11:22:32;2.58;;;1.00;;
26488;SDS011;14169;43.684;10.484;2022-11-23T11:25:00;1.60;;;0.90;;
26488;SDS011;14169;43.684;10.484;2022-11-23T11:27:28;1.83;;;0.98;;
26488;SDS011;14169;43.684;10.484;2022-11-23T11:30:05;1.20;;;0.88;;
26488;SDS011;14169;43.684;10.484;2022-11-23T11:32:48;1.63;;;0.77;;
26488;SDS011;14169;43.684;10.484;2022-11-23T11:35:31;1.45;;;1.00;;
26488;SDS011;14169;43.684;10.484;2022-11-23T11:38:08;5.85;;;1.50;;
26488;SDS011;14169;43.684;10.484;2022-11-23T11:40:44;2.53;;;0.90;;
26488;SDS011;14169;43.684;10.484;2022-11-23T11:43:16;1.80;;;1.00;;
26488;SDS011;14169;43.684;10.484;2022-11-23T11:45:50;2.10;;;1.05;;
26488;SDS011;14169;43.684;10.484;2022-11-23T11:48:23;1.65;;;1.20;;
26488;SDS011;14169;43.684;10.484;2022-11-23T11:53:38;2.25;;;1.20;;
26488;SDS011;14169;43.684;10.484;2022-11-23T11:56:12;1.42;;;0.80;;
26488;SDS011;14169;43.684;10.484;2022-11-23T11:58:42;1.77;;;0.90;;
26488;SDS011;14169;43.684;10.484;2022-11-23T12:01:27;1.45;;;1.20;;
26488;SDS011;14169;43.684;10.484;2022-11-23T12:04:05;2.20;;;0.95;;
26488;SDS011;14169;43.684;10.484;2022-11-23T12:06:41;1.00;;;0.90;;
26488;SDS011;14169;43.684;10.484;2022-11-23T12:09:15;1.60;;;1.00;;
26488;SDS011;14169;43.684;10.484;2022-11-23T12:11:42;1.55;;;0.93;;
26488;SDS011;14169;43.684;10.484;2022-11-23T12:14:09;2.53;;;0.88;;
26488;SDS011;14169;43.684;10.484;2022-11-23T12:16:46;1.77;;;0.88;;
26488;SDS011;14169;43.684;10.484;2022-11-23T12:19:40;2.63;;;1.15;;
26488;SDS011;14169;43.684;10.484;2022-11-23T12:24:56;2.25;;;0.60;;
26488;SDS011;14169;43.684;10.484;2022-11-23T12:40:34;2.38;;;1.35;;
26488;SDS011;14169;43.684;10.484;2022-11-23T12:43:12;1.30;;;1.20;;
26488;SDS011;14169;43.684;10.484;2022-11-23T12:48:36;2.53;;;1.10;;
26488;SDS011;14169;43.684;10.484;2022-11-23T12:54:24;1.00;;;0.90;;
26488;SDS011;14169;43.684;10.484;2022-11-23T12:57:07;1.65;;;1.15;;
26488;SDS011;14169;43.684;10.484;2022-11-23T13:21:39;3.25;;;1.10;;
26488;SDS011;14169;43.684;10.484;2022-11-23T13:24:27;1.63;;;0.98;;
26488;SDS011;14169;43.684;10.484;2022-11-23T13:40:22;1.05;;;0.73;;
26488;SDS011;14169;43.684;10.484;2022-11-23T13:42:48;2.70;;;0.93;;
26488;SDS011;14169;43.684;10.484;2022-11-23T13:51:17;3.88;;;1.10;;
26488;SDS011;14169;43.684;10.484;2022-11-23T13:53:29;1.05;;;0.77;;
26488;SDS011;14169;43.684;10.484;2022-11-23T14:04:21;1.67;;;0.98;;
26488;SDS011;14169;43.684;10.484;2022-11-23T14:06:49;2.05;;;0.93;;
26488;SDS011;14169;43.684;10.484;2022-11-23T14:09:28;3.33;;;0.80;;
26488;SDS011;14169;43.684;10.484;2022-11-23T14:20:23;1.42;;;0.90;;
26488;SDS011;14169;43.684;10.484;2022-11-23T14:31:48;1.90;;;0.93;;
26488;SDS011;14169;43.684;10.484;2022-11-23T14:42:54;3.30;;;1.52;;
26488;SDS011;14169;43.684;10.484;2022-11-23T14:45:22;4.50;;;3.70;;
26488;SDS011;14169;43.684;10.484;2022-11-23T14:47:51;4.43;;;2.00;;
26488;SDS011;14169;43.684;10.484;2022-11-23T14:50:20;4.78;;;1.67;;
26488;SDS011;14169;43.684;10.484;2022-11-23T14:52:48;2.45;;;1.40;;
26488;SDS011;14169;43.684;10.484;2022-11-23T14:55:33;3.97;;;1.60;;
26488;SDS011;14169;43.684;10.484;2022-11-23T14:58:00;3.40;;;1.40;;
26488;SDS011;14169;43.684;10.484;2022-11-23T15:02:57;2.80;;;1.63;;
26488;SDS011;14169;43.684;10.484;2022-11-23T15:05:30;4.18;;;1.50;;
26488;SDS011;14169;43.684;10.484;2022-11-23T15:08:09;3.03;;;1.27;;
26488;SDS011;14169;43.684;10.484;2022-11-23T15:13:18;3.08;;;1.10;;
26488;SDS011;14169;43.684;10.484;2022-11-23T15:15:46;3.65;;;1.42;;
26488;SDS011;14169;43.684;10.484;2022-11-23T15:18:24;3.75;;;1.83;;
26488;SDS011;14169;43.684;10.484;2022-11-23T15:23:38;4.03;;;1.88;;
26488;SDS011;14169;43.684;10.484;2022-11-23T15:26:11;2.00;;;1.30;;
26488;SDS011;14169;43.684;10.484;2022-11-23T15:28:39;3.97;;;1.73;;
26488;SDS011;14169;43.684;10.484;2022-11-23T15:31:17;3.40;;;2.38;;
26488;SDS011;14169;43.684;10.484;2022-11-23T15:33:46;4.45;;;2.45;;
26488;SDS011;14169;43.684;10.484;2022-11-23T15:36:15;5.78;;;2.25;;
26488;SDS011;14169;43.684;10.484;2022-11-23T15:38:53;4.45;;;2.10;;
26488;SDS011;14169;43.684;10.484;2022-11-23T15:41:21;6.50;;;2.40;;
26488;SDS011;14169;43.684;10.484;2022-11-23T15:43:52;4.30;;;2.47;;
26488;SDS011;14169;43.684;10.484;2022-11-23T15:46:19;7.03;;;4.03;;
26488;SDS011;14169;43.684;10.484;2022-11-23T15:48:49;8.88;;;4.78;;
26488;SDS011;14169;43.684;10.484;2022-11-23T15:53:57;8.18;;;7.05;;
26488;SDS011;14169;43.684;10.484;2022-11-23T15:56:33;9.00;;;6.43;;
26488;SDS011;14169;43.684;10.484;2022-11-23T15:59:02;8.55;;;5.10;;
26488;SDS011;14169;43.684;10.484;2022-11-23T16:01:29;7.78;;;5.47;;
26488;SDS011;14169;43.684;10.484;2022-11-23T16:03:58;8.25;;;5.68;;
26488;SDS011;14169;43.684;10.484;2022-11-23T16:06:33;8.20;;;6.30;;
26488;SDS011;14169;43.684;10.484;2022-11-23T16:09:31;7.53;;;6.30;;
26488;SDS011;14169;43.684;10.484;2022-11-23T16:14:49;15.25;;;8.70;;
26488;SDS011;14169;43.684;10.484;2022-11-23T16:17:16;9.80;;;8.73;;
26488;SDS011;14169;43.684;10.484;2022-11-23T16:19:45;13.00;;;7.30;;
26488;SDS011;14169;43.684;10.484;2022-11-23T16:22:16;9.57;;;6.95;;
26488;SDS011;14169;43.684;10.484;2022-11-23T16:24:45;11.35;;;7.75;;
26488;SDS011;14169;43.684;10.484;2022-11-23T16:27:13;11.27;;;7.30;;
26488;SDS011;14169;43.684;10.484;2022-11-23T16:29:39;13.82;;;7.45;;
26488;SDS011;14169;43.684;10.484;2022-11-23T16:32:18;7.40;;;6.55;;
26488;SDS011;14169;43.684;10.484;2022-11-23T16:34:49;11.27;;;7.22;;
26488;SDS011;14169;43.684;10.484;2022-11-23T16:37:15;27.48;;;19.20;;
26488;SDS011;14169;43.684;10.484;2022-11-23T16:39:40;29.35;;;22.05;;
26488;SDS011;14169;43.684;10.484;2022-11-23T16:42:06;42.17;;;24.98;;
26488;SDS011;14169;43.684;10.484;2022-11-23T16:44:39;25.23;;;17.33;;
26488;SDS011;14169;43.684;10.484;2022-11-23T16:47:23;20.40;;;14.40;;
26488;SDS011;14169;43.684;10.484;2022-11-23T16:49:50;23.13;;;15.00;;
26488;SDS011;14169;43.684;10.484;2022-11-23T16:52:16;24.38;;;12.75;;
26488;SDS011;14169;43.684;10.484;2022-11-23T16:54:42;26.58;;;17.58;;